createdAt,value
2019-03-31T00:01:51.287Z,30.33
2019-03-31T00:06:54.811Z,28.93
2019-03-31T00:11:58.305Z,33.13
2019-03-31T00:17:01.729Z,28.40
2019-03-31T00:22:05.434Z,29.40
2019-03-31T00:27:08.849Z,30.40
2019-03-31T00:32:12.265Z,37.20
2019-03-31T00:37:15.735Z,27.63
2019-03-31T00:42:19.170Z,25.07
2019-03-31T00:47:22.614Z,30.93
2019-03-31T00:52:26.059Z,28.33
2019-03-31T00:57:29.555Z,32.53
2019-03-31T01:02:33.819Z,34.93
2019-03-31T01:07:37.308Z,33.27
2019-03-31T01:12:41.100Z,30.40
2019-03-31T01:17:44.515Z,27.37
2019-03-31T01:22:48.927Z,25.23
2019-03-31T01:27:53.109Z,36.07
2019-03-31T01:32:56.797Z,27.53
2019-03-31T01:38:00.305Z,30.13
2019-03-31T01:43:03.739Z,30.87
2019-03-31T01:48:07.256Z,32.53
2019-03-31T01:53:10.752Z,29.90
2019-03-31T01:58:14.427Z,33.77
2019-03-31T02:03:17.944Z,39.63
2019-03-31T02:08:21.848Z,31.80
2019-03-31T02:13:25.330Z,31.53
2019-03-31T02:18:28.834Z,36.77
2019-03-31T02:23:32.331Z,30.77
2019-03-31T02:28:35.773Z,43.60
2019-03-31T02:33:39.197Z,37.73
2019-03-31T02:38:42.657Z,52.50
2019-03-31T02:43:46.188Z,49.07
2019-03-31T02:48:49.613Z,48.57
2019-03-31T02:53:53.115Z,47.97
2019-03-31T02:58:58.603Z,57.33
2019-03-31T03:04:07.737Z,54.40
2019-03-31T03:09:09.419Z,49.90
2019-03-31T03:14:14.890Z,67.50
2019-03-31T03:19:18.332Z,59.27
2019-03-31T03:24:21.760Z,54.40
2019-03-31T03:29:25.219Z,62.70
2019-03-31T03:34:28.653Z,65.50
2019-03-31T03:39:32.101Z,72.07
2019-03-31T03:44:35.555Z,52.57
2019-03-31T03:49:38.990Z,55.13
2019-03-31T03:54:42.433Z,58.30
2019-03-31T03:59:45.871Z,63.87
2019-03-31T04:04:49.287Z,53.90
2019-03-31T04:09:52.706Z,52.33
2019-03-31T04:14:56.132Z,56.03
2019-03-31T04:19:59.570Z,53.57
2019-03-31T04:25:03.070Z,53.20
2019-03-31T04:30:06.679Z,59.03
2019-03-31T04:35:10.200Z,68.93
2019-03-31T04:40:13.839Z,60.73
2019-03-31T04:45:17.656Z,50.97
2019-03-31T04:50:21.098Z,51.10
2019-03-31T04:55:24.533Z,50.30
2019-03-31T05:00:28.680Z,52.67
2019-03-31T05:05:32.122Z,54.47
2019-03-31T05:10:35.549Z,46.73
2019-03-31T05:15:38.981Z,49.83
2019-03-31T05:20:42.479Z,56.67
2019-03-31T05:25:45.921Z,57.40
2019-03-31T05:30:49.375Z,55.67
2019-03-31T05:35:52.813Z,58.17
2019-03-31T05:40:56.252Z,59.67
2019-03-31T05:45:59.705Z,54.47
2019-03-31T05:51:03.155Z,61.13
2019-03-31T05:56:06.659Z,65.83
2019-03-31T06:01:10.134Z,66.40
2019-03-31T06:06:13.575Z,67.37
2019-03-31T06:11:17.034Z,64.27
2019-03-31T06:16:20.484Z,60.10
2019-03-31T06:21:23.917Z,69.23
2019-03-31T06:26:27.354Z,60.27
2019-03-31T06:31:30.780Z,52.20
2019-03-31T06:36:34.217Z,58.33
2019-03-31T06:41:37.673Z,50.53
2019-03-31T06:46:41.095Z,49.50
2019-03-31T06:51:44.536Z,50.30
2019-03-31T06:56:47.963Z,43.17
2019-03-31T07:01:51.413Z,44.70
2019-03-31T07:06:54.862Z,48.43
2019-03-31T07:11:58.352Z,40.23
2019-03-31T07:17:01.821Z,40.27
2019-03-31T07:22:05.252Z,37.83
2019-03-31T07:27:08.704Z,33.27
2019-03-31T07:32:12.128Z,36.03
2019-03-31T07:37:15.562Z,32.13
2019-03-31T07:42:19.071Z,27.27
2019-03-31T07:47:22.518Z,34.83
2019-03-31T07:52:25.957Z,27.33
2019-03-31T07:57:29.400Z,20.27
2019-03-31T08:02:32.921Z,17.90
2019-03-31T08:07:36.415Z,15.67
2019-03-31T08:12:39.842Z,20.10
2019-03-31T08:17:43.261Z,12.17
2019-03-31T08:22:46.703Z,18.23
2019-03-31T08:27:50.149Z,13.93
2019-03-31T08:32:53.592Z,14.37
2019-03-31T08:37:57.087Z,14.57
2019-03-31T08:43:00.508Z,15.23
2019-03-31T08:48:03.961Z,11.87
2019-03-31T08:53:07.409Z,10.80
2019-03-31T08:58:10.921Z,13.87
2019-03-31T09:03:14.375Z,12.67
2019-03-31T09:08:17.828Z,14.97
2019-03-31T09:13:21.278Z,10.40
2019-03-31T09:18:24.698Z,12.60
2019-03-31T09:23:28.150Z,13.63
2019-03-31T09:28:31.594Z,11.90
2019-03-31T09:33:35.021Z,12.53
2019-03-31T09:38:38.455Z,10.57
2019-03-31T09:43:41.916Z,9.73
2019-03-31T09:48:45.360Z,7.90
2019-03-31T09:53:48.814Z,11.67
2019-03-31T09:58:52.313Z,10.67
2019-03-31T10:03:55.734Z,8.33
2019-03-31T10:08:59.761Z,9.50
2019-03-31T10:14:03.260Z,7.63
2019-03-31T10:19:06.713Z,9.93
2019-03-31T10:24:10.167Z,8.97
2019-03-31T10:29:13.684Z,7.03
2019-03-31T10:34:17.159Z,8.77
2019-03-31T10:39:20.678Z,8.43
2019-03-31T10:44:24.123Z,10.03
2019-03-31T10:49:27.610Z,7.90
2019-03-31T10:54:31.110Z,6.40
2019-03-31T10:59:34.562Z,11.03
2019-03-31T11:04:38.025Z,13.03
2019-03-31T11:09:41.546Z,7.37
2019-03-31T11:14:44.971Z,9.53
2019-03-31T11:19:48.390Z,10.40
2019-03-31T11:24:51.846Z,10.67
2019-03-31T11:29:55.296Z,8.83
2019-03-31T11:34:59.231Z,7.10
2019-03-31T11:40:05.678Z,7.17
2019-03-31T11:45:11.420Z,8.97
2019-03-31T11:50:16.047Z,6.83
2019-03-31T11:55:19.495Z,7.03
2019-03-31T12:00:27.955Z,10.10
2019-03-31T12:05:31.417Z,7.37
2019-03-31T12:10:34.943Z,7.90
2019-03-31T12:15:38.412Z,6.67
2019-03-31T12:20:41.857Z,6.60
2019-03-31T12:25:45.617Z,9.67
2019-03-31T12:30:49.159Z,6.43
2019-03-31T12:35:52.960Z,6.47
2019-03-31T12:40:56.438Z,6.03
2019-03-31T12:46:00.588Z,6.30
2019-03-31T12:51:04.003Z,6.43
2019-03-31T12:56:07.461Z,4.67
2019-03-31T13:01:10.949Z,5.47
2019-03-31T13:06:14.425Z,3.73
2019-03-31T13:11:18.265Z,4.43
2019-03-31T13:16:21.731Z,5.67
2019-03-31T13:21:25.357Z,5.53
2019-03-31T13:26:29.132Z,3.83
2019-03-31T13:31:32.839Z,7.10
2019-03-31T13:36:37.162Z,6.17
2019-03-31T13:41:40.712Z,4.93
2019-03-31T13:46:44.241Z,6.33
2019-03-31T13:51:47.698Z,7.63
2019-03-31T13:56:52.185Z,8.77
2019-03-31T14:01:56.211Z,5.37
2019-03-31T14:07:04.210Z,9.97
2019-03-31T14:12:06.016Z,5.50
2019-03-31T14:17:09.574Z,4.13
2019-03-31T14:22:13.022Z,8.50
2019-03-31T14:27:17.344Z,8.20
2019-03-31T14:32:20.773Z,6.17
2019-03-31T14:37:24.450Z,10.53
2019-03-31T14:42:27.867Z,5.37
2019-03-31T14:47:32.175Z,6.57
2019-03-31T14:52:35.733Z,8.83
2019-03-31T14:57:39.333Z,6.67
2019-03-31T15:02:42.801Z,9.13
2019-03-31T15:07:46.656Z,8.20
2019-03-31T15:12:50.120Z,14.80
2019-03-31T15:17:53.667Z,7.20
2019-03-31T15:22:57.491Z,12.40
2019-03-31T15:28:00.938Z,5.30
2019-03-31T15:33:04.382Z,11.57
2019-03-31T15:38:07.808Z,7.83
2019-03-31T15:43:11.236Z,8.60
2019-03-31T15:48:14.663Z,5.63
2019-03-31T15:53:18.117Z,5.50
2019-03-31T15:58:21.563Z,4.23
2019-03-31T16:03:24.979Z,9.40
2019-03-31T16:08:28.419Z,7.63
2019-03-31T16:13:31.857Z,5.00
2019-03-31T16:18:35.308Z,6.83
2019-03-31T16:23:38.751Z,7.33
2019-03-31T16:28:42.175Z,8.83
2019-03-31T16:33:45.605Z,5.57
2019-03-31T16:38:49.059Z,8.03
2019-03-31T16:43:52.606Z,7.40
2019-03-31T16:48:56.956Z,12.93
2019-03-31T16:54:01.301Z,12.50
2019-03-31T16:59:04.884Z,7.73
2019-03-31T17:04:08.830Z,8.90
2019-03-31T17:09:12.442Z,11.00
2019-03-31T17:14:15.900Z,9.87
2019-03-31T17:19:19.344Z,7.20
2019-03-31T17:24:22.830Z,9.27
2019-03-31T17:29:26.276Z,7.67
2019-03-31T17:34:29.780Z,13.07
2019-03-31T17:39:33.270Z,13.63
2019-03-31T17:44:36.757Z,4.57
2019-03-31T17:49:40.197Z,8.53
2019-03-31T17:54:43.649Z,6.87
2019-03-31T17:59:47.093Z,6.63
2019-03-31T18:04:52.857Z,7.00
2019-03-31T18:09:56.595Z,6.10
2019-03-31T18:15:00.031Z,14.43
2019-03-31T18:20:04.708Z,6.27
2019-03-31T18:25:08.508Z,5.17
2019-03-31T18:30:16.895Z,7.47
2019-03-31T18:35:20.885Z,2.87
2019-03-31T18:40:34.771Z,6.17
2019-03-31T18:45:29.494Z,3.90
2019-03-31T18:50:32.948Z,2.97
2019-03-31T18:55:40.639Z,9.97
2019-03-31T19:01:00.803Z,3.93
2019-03-31T19:06:20.887Z,7.43
2019-03-31T19:11:31.666Z,6.97
2019-03-31T19:16:45.445Z,7.20
2019-03-31T19:21:51.289Z,6.33
2019-03-31T19:27:12.578Z,6.83
2019-03-31T19:32:17.665Z,7.53
2019-03-31T19:37:29.070Z,7.97
2019-03-31T19:42:36.736Z,5.70
2019-03-31T19:47:50.894Z,5.30
2019-03-31T19:52:58.799Z,7.20
2019-03-31T19:58:06.564Z,6.03
2019-03-31T20:03:17.254Z,6.07
2019-03-31T20:08:38.675Z,5.73
2019-03-31T20:13:52.614Z,11.57
2019-03-31T20:19:03.326Z,3.57
2019-03-31T20:24:11.069Z,7.40
2019-03-31T20:29:16.168Z,6.70
2019-03-31T20:34:27.098Z,3.40
2019-03-31T20:39:34.995Z,9.43
2019-03-31T20:44:38.490Z,14.37
2019-03-31T20:49:41.939Z,11.47
2019-03-31T20:54:45.464Z,13.57
2019-03-31T20:59:49.117Z,9.03
2019-03-31T21:04:52.699Z,6.20
2019-03-31T21:09:56.115Z,10.73
2019-03-31T21:14:59.799Z,4.60
2019-03-31T21:20:03.611Z,6.93
2019-03-31T21:25:07.058Z,4.53
2019-03-31T21:30:11.204Z,6.90
2019-03-31T21:35:14.730Z,10.83
2019-03-31T21:40:18.197Z,8.10
2019-03-31T21:45:21.759Z,7.57
2019-03-31T21:50:25.222Z,7.43
2019-03-31T21:55:28.682Z,4.50
2019-03-31T22:00:33.758Z,2.93
2019-03-31T22:05:37.174Z,12.90
2019-03-31T22:10:40.622Z,5.67
2019-03-31T22:15:44.062Z,2.80
2019-03-31T22:20:47.637Z,5.70
2019-03-31T22:25:51.089Z,6.40
2019-03-31T22:30:54.608Z,11.57
2019-03-31T22:41:24.584Z,9.87
2019-03-31T22:46:28.013Z,7.50
2019-03-31T22:51:31.505Z,6.17
2019-03-31T22:56:34.918Z,9.03
2019-03-31T23:01:38.338Z,4.47
2019-03-31T23:06:41.735Z,5.37
2019-03-31T23:11:45.157Z,6.73
2019-03-31T23:16:48.579Z,2.70
2019-03-31T23:21:52.007Z,3.30
2019-03-31T23:26:55.404Z,4.83
2019-03-31T23:31:58.845Z,6.73
2019-03-31T23:37:02.309Z,5.53
2019-03-31T23:42:05.712Z,4.20
2019-03-31T23:47:09.155Z,1.77
2019-03-31T23:52:12.567Z,3.60
2019-03-31T23:57:15.968Z,3.40
